Nearby METAR Reports

 

KPAO - Palo Alto, California, USA
Distance from KPAO: NNW 0nm, 0mi
Updated: Sun, 15-May-2022 8:47pm PDT
NOT Current
Sky Clear
Sky Clear
 Wind from W
Wind: W 13 mph , 20 km/h
Temperature: 59°F , 15°C
Dew Point: 48°F , 9°C
Humidity: 68%
Barometer: 30.05 inHg , 1017.6 hPa
Clouds: Sky Clear
Visibility: 10 miles , 16 km
2022/05/16 03:47 KPAO 160347Z 28011KT 10SM SKC 15/09 A3005 RMK LAST
KSQL - San Carlos Airpo, California, USA
Distance from KPAO: WNW 7nm, 8mi
Updated: Mon, 16-May-2022 5:15am PDT
Broken
Broken
 Wind from calm
Wind: Calm
Temperature: 55°F , 13°C
Dew Point: 50°F , 10°C
Humidity: 82%
Barometer: 30.08 inHg , 1018.6 hPa
Clouds: Broken
Visibility: 10 miles , 16 km
Cloud details: Broken 1700 ft
2022/05/16 12:15 KSQL 161215Z AUTO 00000KT 10SM BKN017 13/10 A3008 RMK AO2
 
KSJC - San Jose, California, USA
Distance from KPAO: ESE 11nm, 13mi
Updated: Mon, 16-May-2022 5:17am PDT
Scattered
Scattered
 Wind from NW
Wind: NW 8 mph , 13 km/h
Temperature: 55°F , 13°C
Dew Point: 48°F , 9°C
Humidity: 77%
Barometer: 30.07 inHg , 1018.3 hPa
Clouds: Scattered
Visibility: 10 miles , 16 km
Cloud details: Scattered 2300 ft
2022/05/16 12:17 KSJC 161217Z AUTO 31007KT 10SM SCT023 13/09 A3007 RMK AO2 T01280094
KHWD - Hayward, California, USA
Distance from KPAO: N 12nm, 14mi
Updated: Mon, 16-May-2022 4:54am PDT
Overcast
Overcast
 Wind from W
Wind: W 20 mph , 31 km/h, Gust: 29 mph , 46 km/h
Temperature: 55°F , 13°C
Dew Point: 52°F , 11°C
Humidity: 88%
Barometer: 30.05 inHg , 1017.6 hPa
Clouds: Overcast
Visibility: 10 miles , 16 km
Cloud details: Overcast 1200 ft
2022/05/16 11:54 KHWD 161154Z 27017G25KT 10SM OVC012 13/11 A3005 RMK AO2 SLP185 T01330106 10133 20128 58001
 
KSFO - San Francisco, California, USA
Distance from KPAO: NW 16nm, 18mi
Updated: Mon, 16-May-2022 4:56am PDT
Overcast
Overcast
 Wind from W
Wind: W 16 mph , 26 km/h, Gust: 26 mph , 43 km/h
Temperature: 55°F , 13°C
Dew Point: 50°F , 10°C
Humidity: 82%
Barometer: 30.04 inHg , 1017.3 hPa
Clouds: Overcast
Visibility: 10 miles , 16 km
Cloud details: Few Clouds 700 ft
Overcast 1200 ft
2022/05/16 11:56 KSFO 161156Z 27014G23KT 10SM FEW007 OVC012 13/10 A3004 RMK AO2 SLP171 T01330100 10139 20128 56006
KRHV - San Jose/Reid, California, USA
Distance from KPAO: ESE 16nm, 18mi
Updated: Sun, 15-May-2022 9:50pm PDT
NOT Current
Scattered
Scattered
 Wind from NNW
Wind: NNW 10 mph , 17 km/h
Temperature: 57°F , 14°C
Dew Point: 48°F , 9°C
Humidity: 72%
Barometer: 30.07 inHg , 1018.3 hPa
Clouds: Scattered
Visibility: 10 miles , 16 km
Cloud details: Scattered 12000 ft
2022/05/16 04:50 KRHV 160450Z 34009KT 10SM SCT120 14/09 A3007
 
KOAK - Oakland, California, USA
Distance from KPAO: NNW 16nm, 18mi
Updated: Mon, 16-May-2022 4:53am PDT
Overcast
Overcast
 Wind from W
Wind: W 20 mph , 31 km/h
Temperature: 55°F , 13°C
Dew Point: 52°F , 11°C
Humidity: 88%
Barometer: 30.06 inHg , 1017.9 hPa
Clouds: Overcast
Visibility: 10 miles , 16 km
Cloud details: Scattered 900 ft
Overcast 1100 ft
2022/05/16 11:53 KOAK 161153Z 28017KT 10SM SCT009 OVC011 13/11 A3006 RMK AO2 SLP180 T01330106 10133 20128 53000
KHAF - Half Moon Bay, California, USA
Distance from KPAO: W 19nm, 22mi
Updated: Mon, 16-May-2022 5:15am PDT
Overcast
Overcast
 Wind from NNW
Wind: NNW 10 mph , 17 km/h
Temperature: 54°F , 12°C
Dew Point: 54°F , 12°C
Humidity: 100%
Barometer: 30.08 inHg , 1018.6 hPa
Clouds: Overcast
Visibility: 7 miles , 11 km
Cloud details: Overcast 1200 ft
2022/05/16 12:15 KHAF 161215Z AUTO 33009KT 7SM OVC012 12/12 A3008 RMK AO2
 
KLVK - Livermore, California, USA
Distance from KPAO: NE 20nm, 23mi
Updated: Mon, 16-May-2022 5:21am PDT
Broken
Broken
 Wind from WSW
Wind: WSW 14 mph , 22 km/h
Temperature: 55°F , 13°C
Dew Point: 50°F , 10°C
Humidity: 82%
Barometer: 30.04 inHg , 1017.3 hPa
Clouds: Broken
Visibility: 10 miles , 16 km
Cloud details: Broken 1600 ft
2022/05/16 12:21 KLVK 161221Z AUTO 24012KT 10SM BKN016 13/10 A3004 RMK AO2 T01280100
KC83 - Byron, California, USA
Distance from KPAO: NE 32nm, 40mi
Updated: Mon, 16-May-2022 5:15am PDT
Clear
Clear
 Wind from SW
Wind: SW 33 mph , 54 km/h, Gust: 41 mph , 67 km/h
Temperature: 55°F , 13°C
Dew Point: 50°F , 10°C
Humidity: 82%
Barometer: 29.97 inHg , 1014.9 hPa
Clouds: Clear
Visibility: 10 miles , 16 km
2022/05/16 12:15 KC83 161215Z AUTO 23029G36KT 10SM CLR 13/10 A2997 RMK AO2
 
KCCR - Concord, California, USA
Distance from KPAO: N 33nm, 37mi
Updated: Mon, 16-May-2022 5:18am PDT
Scattered
Scattered
 Wind from S
Wind: S 7 mph , 11 km/h
Temperature: 55°F , 13°C
Dew Point: 50°F , 10°C
Humidity: 82%
Barometer: 30.02 inHg , 1016.6 hPa
Clouds: Scattered
Visibility: 10 miles , 16 km
Cloud details: Scattered 1600 ft
2022/05/16 12:18 KCCR 161218Z AUTO 19006KT 10SM SCT016 13/10 A3002 RMK AO2 T01330100
KWVI - Watsonville, California, USA
Distance from KPAO: SSE 35nm, 40mi
Updated: Mon, 16-May-2022 4:53am PDT
Overcast
Overcast
 Wind from calm
Wind: Calm
Temperature: 52°F , 11°C
Dew Point: 52°F , 11°C
Humidity: 100%
Barometer: 30.08 inHg , 1018.6 hPa
Clouds: Overcast
Visibility: 9 miles , 14 km
Cloud details: Overcast 400 ft
2022/05/16 11:53 KWVI 161153Z AUTO 00000KT 9SM OVC004 11/11 A3008 RMK AO2 SLP185 T01110106 10122 20094 53001
 
KAPC - Napa, California, USA
Distance from KPAO: N 46nm, 53mi
Updated: Mon, 16-May-2022 5:12am PDT
Few Clouds
Few Clouds
 Wind from WSW
Wind: WSW 12 mph , 19 km/h
Temperature: 54°F , 12°C
Dew Point: 52°F , 11°C
Humidity: 94%
Barometer: 30.02 inHg , 1016.6 hPa
Clouds: Few Clouds
Visibility: 10 miles , 16 km
Cloud details: Few Clouds 700 ft
2022/05/16 12:12 KAPC 161212Z AUTO 25010KT 10SM FEW007 12/11 A3002 RMK AO2 T01170106
KDVO - Novato/Gnoss Fld, California, USA
Distance from KPAO: NNW 46nm, 53mi
Updated: Mon, 16-May-2022 5:15am PDT
Clear
Clear
 Wind from varies
Wind: varies 5 mph , 7 km/h
Temperature: 54°F , 12°C
Dew Point: 52°F , 11°C
Humidity: 94%
Barometer: 30.03 inHg , 1016.9 hPa
Clouds: Clear
Visibility: 10 miles , 16 km
2022/05/16 12:15 KDVO 161215Z AUTO VRB04KT 10SM CLR 12/11 A3003 RMK AO2
 
KCVH - Hollister Muni, California, USA
Distance from KPAO: SE 48nm, 55mi
Updated: Mon, 16-May-2022 5:15am PDT
Overcast
Overcast
 Wind from calm
Wind: Calm
Temperature: 50°F , 10°C
Dew Point: 46°F , 8°C
Humidity: 88%
Barometer: 30.07 inHg , 1018.3 hPa
Clouds: Overcast
Visibility: 10 miles , 16 km
Cloud details: Overcast 1900 ft
2022/05/16 12:15 KCVH 161215Z AUTO 00000KT 10SM OVC019 10/08 A3007 RMK A01
KSUU - Travis Afb/Fairf, California, USA
Distance from KPAO: ENE 49nm, 56mi
Updated: Mon, 16-May-2022 4:58am PDT
Clear
Clear
 Wind from WSW
Wind: WSW 26 mph , 43 km/h
Temperature: 54°F , 12°C
Dew Point: 48°F , 9°C
Humidity: 82%
Barometer: 29.94 inHg , 1013.9 hPa
Clouds: Clear
Visibility: 10 miles , 16 km
2022/05/16 11:58 KSUU 161158Z AUTO 24023KT 10SM CLR 12/09 A2994 RMK AO2 PK WND 24029/54 SLP145 T01170093 10136 20114 58005 $
 
KSCK - Stockton, California, USA
Distance from KPAO: ENE 49nm, 56mi
Updated: Mon, 16-May-2022 4:55am PDT
Clear
Clear
 Wind from W
Wind: W 9 mph , 15 km/h
Temperature: 55°F , 13°C
Dew Point: 50°F , 10°C
Humidity: 82%
Barometer: 29.99 inHg , 1015.6 hPa
Clouds: Clear
Visibility: 10 miles , 16 km
2022/05/16 11:55 KSCK 161155Z AUTO 26008KT 10SM CLR 13/10 A2999 RMK AO2 SLP156 T01330100 10161 20133 53004
KO69 - Petaluma, California, USA
Distance from KPAO: W 53nm, 61mi
Updated: Mon, 16-May-2022 5:15am PDT
Overcast
Overcast
 Wind from WNW
Wind: WNW 10 mph , 17 km/h
Temperature: 52°F , 11°C
Dew Point: 52°F , 11°C
Humidity: 100%
Barometer: 30.05 inHg , 1017.6 hPa
Clouds: Overcast
Visibility: 10 miles , 16 km
Cloud details: Overcast 500 ft
2022/05/16 12:15 KO69 161215Z AUTO 29009KT 10SM OVC005 11/11 A3005 RMK A01
 
KSNS - Salinas, California, USA
Distance from KPAO: SSE 54nm, 62mi
Updated: Mon, 16-May-2022 5:21am PDT
Overcast
Overcast
 Wind from W
Wind: W 7 mph , 11 km/h
Temperature: 55°F , 13°C
Dew Point: 52°F , 11°C
Humidity: 88%
Barometer: 30.07 inHg , 1018.3 hPa
Clouds: Overcast
Visibility: 10 miles , 16 km
Cloud details: Overcast 400 ft
2022/05/16 12:21 KSNS 161221Z 27006KT 10SM OVC004 13/11 A3007 RMK AO2 T01330111
KMRY - Monterey, California, USA
Distance from KPAO: SSE 54nm, 62mi
Updated: Mon, 16-May-2022 4:54am PDT
Overcast
Overcast
 Wind from WNW
Wind: WNW 9 mph , 15 km/h
Temperature: 55°F , 13°C
Dew Point: 52°F , 11°C
Humidity: 88%
Barometer: 30.09 inHg , 1019 hPa
Clouds: Overcast
Visibility: 10 miles , 16 km
Cloud details: Broken 500 ft
Overcast 1000 ft
2022/05/16 11:54 KMRY 161154Z AUTO 29008KT 10SM BKN005 OVC010 13/11 A3009 RMK AO2 CIG 004V009 SLP202 T01330106 10139 20128 53001
 
KVCB - Vacaville, California, USA
Distance from KPAO: NE 55nm, 63mi
Updated: Mon, 16-May-2022 4:53am PDT
Clear
Clear
 Wind from WSW
Wind: WSW 6 mph , 9 km/h
Temperature: 59°F , 15°C
Dew Point: 43°F , 6°C
Humidity: 55%
Barometer: 29.95 inHg , 1014.2 hPa
Clouds: Clear
Visibility: 10 miles , 16 km
2022/05/16 11:53 KVCB 161153Z AUTO 24005KT 10SM CLR 15/06 A2995 RMK AO2 SLP141 T01500061 10194 20150 50002
KMOD - Modesto, California, USA
Distance from KPAO: E 56nm, 64mi
Updated: Mon, 16-May-2022 4:53am PDT
Clear
Clear
 Wind from NNW
Wind: NNW 10 mph , 17 km/h
Temperature: 57°F , 14°C
Dew Point: 48°F , 9°C
Humidity: 72%
Barometer: 29.97 inHg , 1014.9 hPa
Clouds: Clear
Visibility: 10 miles , 16 km
2022/05/16 11:53 KMOD 161153Z AUTO 34009KT 10SM CLR 14/09 A2997 RMK AO2 SLP148 T01390094 10183 20133 50001
 
KEDU - Davis, California, USA
Distance from KPAO: NE 66nm, 76mi
Updated: Mon, 16-May-2022 5:15am PDT
Clear
Clear
 Wind from calm
Wind: Calm
Temperature: 54°F , 12°C
Dew Point: 46°F , 8°C
Humidity: 77%
Barometer: 29.95 inHg , 1014.2 hPa
Clouds: Clear
Visibility: 10 miles , 16 km
2022/05/16 12:15 KEDU 161215Z AUTO 00000KT 10SM CLR 12/08 A2995 RMK AO1
KSAC - Sacramento, California, USA
Distance from KPAO: NE 70nm, 81mi
Updated: Mon, 16-May-2022 4:53am PDT
Clear
Clear
 Wind from S
Wind: S 7 mph , 11 km/h
Temperature: 55°F , 13°C
Dew Point: 48°F , 9°C
Humidity: 77%
Barometer: 29.96 inHg , 1014.6 hPa
Clouds: Clear
Visibility: 10 miles , 16 km
2022/05/16 11:53 KSAC 161153Z AUTO 18006KT 10SM CLR 13/09 A2996 RMK AO2 SLP145 T01280094 10156 20122 51001
 
KSTS - Santa Rosa, California, USA
Distance from KPAO: NW 71nm, 82mi
Updated: Mon, 16-May-2022 4:53am PDT
Clear
Clear
 Wind from SE
Wind: SE 5 mph , 7 km/h
Temperature: 48°F , 9°C
Wind Chill: 46°F , 8°C
Dew Point: 46°F , 8°C
Humidity: 94%
Barometer: 30.02 inHg , 1016.6 hPa
Clouds: Clear
Visibility: 10 miles , 16 km
2022/05/16 11:53 KSTS 161153Z AUTO 13004KT 10SM CLR 09/08 A3002 RMK AO2 SLP160 T00890083 10150 20089 50001
KMHR - Mather Field, California, USA
Distance from KPAO: ENE 76nm, 88mi
Updated: Mon, 16-May-2022 5:15am PDT
Clear
Clear
 Wind from SE
Wind: SE 8 mph , 13 km/h
Temperature: 50°F , 10°C
Wind Chill: 47°F , 8°C
Dew Point: 46°F , 8°C
Humidity: 88%
Barometer: 29.97 inHg , 1014.9 hPa
Clouds: Clear
Visibility: 10 miles , 16 km
2022/05/16 12:15 KMHR 161215Z AUTO 14007KT 10SM CLR 10/08 A2997 RMK A01
 
KSMF - Sacramento/Metro, California, USA
Distance from KPAO: NE 78nm, 90mi
Updated: Mon, 16-May-2022 4:53am PDT
Clear
Clear
 Wind from SSE
Wind: SSE 10 mph , 17 km/h
Temperature: 55°F , 13°C
Dew Point: 46°F , 8°C
Humidity: 72%
Barometer: 29.94 inHg , 1013.9 hPa
Clouds: Clear
Visibility: 10 miles , 16 km
2022/05/16 11:53 KSMF 161153Z 15009KT 10SM CLR 13/08 A2994 RMK AO2 SLP139 T01280083 10167 20128 51003
KMCC - Mcclellan Afb, California, USA
Distance from KPAO: NE 80nm, 92mi
Updated: Mon, 16-May-2022 5:15am PDT
Clear
Clear
 Wind from SSE
Wind: SSE 10 mph , 17 km/h
Temperature: 55°F , 13°C
Dew Point: 48°F , 9°C
Humidity: 77%
Barometer: 29.97 inHg , 1014.9 hPa
Clouds: Clear
Visibility: 10 miles , 16 km
2022/05/16 12:15 KMCC 161215Z AUTO 15009KT 10SM CLR 13/09 A2997 RMK AO2
 
KNKX - Miramar MCAS (Joe Foss Field) Airport, California, USA
Distance from KPAO: SE 368nm, 423mi
Updated: Mon, 16-May-2022 4:55am PDT
Haze, Overcast
Haze, Overcast
 Wind from E
Wind: E 3 mph , 6 km/h
Temperature: 57°F , 14°C
Dew Point: 52°F , 11°C
Humidity: 82%
Barometer: 29.93 inHg , 1013.5 hPa
Summary: Haze
Clouds: Overcast
Visibility: 6 miles , 10 km
Cloud details: Overcast 900 ft
2022/05/16 11:55 KNKX 161155Z 10003KT 6SM HZ OVC009 14/11 A2993 RMK AO2 SLP130 T01390111 10139 20133 56002
KMYF - Montgomery-Gibbs Executive Airport, California, USA
Distance from KPAO: SE 371nm, 427mi
Updated: Mon, 16-May-2022 4:53am PDT
Haze, Overcast
Haze, Overcast
 Wind from ESE
Wind: ESE 5 mph , 7 km/h
Temperature: 59°F , 15°C
Dew Point: 54°F , 12°C
Humidity: 82%
Barometer: 29.94 inHg , 1013.9 hPa
Summary: Haze
Clouds: Overcast
Visibility: 6 miles , 10 km
Cloud details: Overcast 1000 ft
2022/05/16 11:53 KMYF 161153Z AUTO 12004KT 6SM HZ OVC010 15/12 A2994 RMK AO2 SLP133 T01500117 10156 20144 51001 $